HNL weather

Daniel K Inouye International Airport
Honolulu, Hawaii, United States

Public forecast

Using degrees Fahrenheit for public forecast. Weather courtesy of forecast.io.

METAR (pilot weather report)

Retrieved 2018/08/20 02:53 UTC (45 minutes ago):

PHNL 200253Z 05016KT 10SM FEW023 BKN045 32/22 A2994

TAF (pilot weather forecast)

Forecast is more than 12 hours old.

Retrieved 2018/08/19 00:42 UTC (1 day ago):

TAF PHNL 192339Z 2000/2106 09012G17KT P6SM FEW025 SCT040 FM200500 06008KT P6SM FEW025 SCT040 FM202000 05012G18KT P6SM FEW025 SCT040 FM202300 05017G25KT P6SM FEW025 SCT050